Wetterdaten: Woche 21.12.15 - 27.12.15 (KW52)
Datum Zeit Temp. A. Temp. A. min Temp. A. max Feuchte A. Bod.Feucht 4 Luftdruck Regen Wind Richtung Sonnenschein ET Solar Taupunkt Windchill Windben Empfang
21.12.2015 00:00 8,1 C 8,1 C 8,2 C 98 % 0 cb 1023,3 hPa 0,0 l/m 0,0 km/h (0 Bft) N 0,00 h 0,000 mm 0 W/m 7,9 C 8,1 C 1,1 km/h (0 Bft) 100,00 %
21.12.2015 01:00 8,4 C 8,3 C 8,4 C 98 % 0 cb 1023,3 hPa 0,0 l/m 0,5 km/h (0 Bft) O-SO 0,00 h 0,000 mm 0 W/m 8,1 C 8,4 C 2,9 km/h (1 Bft) 100,00 %
21.12.2015 02:00 9,0 C 9,0 C 9,0 C 98 % 0 cb 1023,2 hPa 0,2 l/m 1,6 km/h (1 Bft) O-NO 0,00 h 0,000 mm 0 W/m 8,7 C 9,0 C 5,9 km/h (2 Bft) 100,00 %
21.12.2015 03:00 9,4 C 9,3 C 9,4 C 98 % 0 cb 1023,6 hPa 0,4 l/m 5,6 km/h (1 Bft) O-SO 0,00 h 0,000 mm 0 W/m 9,0 C 8,8 C 15,3 km/h (3 Bft) 100,00 %
21.12.2015 04:00 8,7 C 8,7 C 8,9 C 96 % 0 cb 1024,2 hPa 0,8 l/m 8,3 km/h (2 Bft) O-SO 0,00 h 0,000 mm 0 W/m 8,1 C 7,4 C 20,4 km/h (4 Bft) 99,85 %
21.12.2015 05:00 7,9 C 7,9 C 8,0 C 95 % 0 cb 1025,0 hPa 1,4 l/m 6,4 km/h (2 Bft) O-SO 0,00 h 0,000 mm 0 W/m 7,1 C 7,0 C 17,4 km/h (3 Bft) 99,56 %
21.12.2015 06:00 7,4 C 7,4 C 7,5 C 96 % 0 cb 1025,3 hPa 0,8 l/m 2,7 km/h (1 Bft) O-NO 0,00 h 0,000 mm 0 W/m 6,8 C 7,4 C 10,7 km/h (2 Bft) 99,85 %
21.12.2015 07:00 7,2 C 7,2 C 7,3 C 97 % 0 cb 1025,4 hPa 0,4 l/m 4,3 km/h (1 Bft) NO 0,00 h 0,000 mm 0 W/m 6,8 C 6,9 C 13,4 km/h (3 Bft) 99,85 %
21.12.2015 08:00 7,2 C 7,1 C 7,2 C 97 % 0 cb 1025,8 hPa 0,0 l/m 5,3 km/h (1 Bft) O-NO 0,00 h 0,000 mm 5 W/m 6,7 C 6,5 C 18,0 km/h (3 Bft) 99,93 %
21.12.2015 09:00 7,3 C 7,3 C 7,3 C 96 % 0 cb 1026,3 hPa 0,0 l/m 7,2 km/h (2 Bft) O-NO 0,00 h 0,000 mm 19 W/m 6,8 C 6,1 C 20,9 km/h (4 Bft) 100,00 %
21.12.2015 10:00 7,7 C 7,6 C 7,7 C 96 % 0 cb 1026,6 hPa 0,0 l/m 7,2 km/h (2 Bft) O-NO 0,00 h 0,000 mm 83 W/m 7,1 C 6,5 C 23,9 km/h (4 Bft) 99,93 %
21.12.2015 11:00 7,9 C 7,9 C 7,9 C 95 % 0 cb 1026,6 hPa 0,6 l/m 8,0 km/h (2 Bft) O-NO 0,00 h 0,025 mm 77 W/m 7,2 C 6,5 C 21,2 km/h (4 Bft) 100,00 %
21.12.2015 12:00 7,9 C 7,9 C 8,0 C 95 % 0 cb 1026,1 hPa 0,4 l/m 7,5 km/h (2 Bft) O-NO 0,00 h 0,025 mm 42 W/m 7,2 C 6,7 C 22,5 km/h (4 Bft) 99,78 %
21.12.2015 13:00 8,1 C 8,1 C 8,1 C 95 % 0 cb 1025,7 hPa 0,6 l/m 9,1 km/h (2 Bft) O-NO 0,00 h 0,025 mm 72 W/m 7,3 C 6,5 C 25,7 km/h (4 Bft) 100,00 %
21.12.2015 14:00 8,4 C 8,3 C 8,4 C 94 % 0 cb 1025,5 hPa 0,0 l/m 8,0 km/h (2 Bft) O-NO 0,00 h 0,025 mm 82 W/m 7,4 C 7,2 C 23,9 km/h (4 Bft) 100,00 %
21.12.2015 15:00 8,7 C 8,7 C 8,7 C 89 % 0 cb 1025,4 hPa 0,0 l/m 8,3 km/h (2 Bft) O-NO 0,00 h 0,025 mm 46 W/m 7,0 C 7,4 C 27,6 km/h (4 Bft) 100,00 %
21.12.2015 16:00 8,8 C 8,8 C 8,8 C 88 % 0 cb 1025,8 hPa 0,0 l/m 8,0 km/h (2 Bft) O 0,00 h 0,025 mm 10 W/m 6,9 C 7,6 C 24,1 km/h (4 Bft) 100,00 %
21.12.2015 17:00 8,5 C 8,5 C 8,6 C 87 % 0 cb 1025,9 hPa 0,0 l/m 8,0 km/h (2 Bft) O-NO 0,00 h 0,025 mm 0 W/m 6,5 C 7,2 C 25,2 km/h (4 Bft) 99,93 %
21.12.2015 18:00 8,4 C 8,4 C 8,5 C 87 % 0 cb 1026,1 hPa 0,0 l/m 8,8 km/h (2 Bft) O 0,00 h 0,025 mm 0 W/m 6,4 C 7,0 C 24,6 km/h (4 Bft) 100,00 %
21.12.2015 19:00 8,4 C 8,3 C 8,4 C 87 % 0 cb 1026,4 hPa 0,0 l/m 10,8 km/h (2 Bft) O 0,00 h 0,025 mm 0 W/m 6,2 C 6,6 C 30,8 km/h (5 Bft) 100,00 %
21.12.2015 20:00 8,6 C 8,6 C 8,7 C 86 % 0 cb 1027,0 hPa 0,0 l/m 9,1 km/h (2 Bft) O-NO 0,00 h 0,025 mm 0 W/m 6,5 C 7,2 C 27,1 km/h (4 Bft) 99,85 %
21.12.2015 21:00 8,4 C 8,4 C 8,5 C 90 % 0 cb 1027,6 hPa 0,6 l/m 9,1 km/h (2 Bft) O-NO 0,00 h 0,025 mm 0 W/m 6,8 C 6,9 C 29,0 km/h (5 Bft) 100,00 %
21.12.2015 22:00 8,0 C 8,0 C 8,1 C 93 % 0 cb 1027,8 hPa 0,0 l/m 8,6 km/h (2 Bft) O 0,00 h 0,025 mm 0 W/m 6,9 C 6,5 C 27,3 km/h (4 Bft) 100,00 %
21.12.2015 23:00 7,8 C 7,8 C 7,8 C 95 % 0 cb 1028,4 hPa 0,2 l/m 8,6 km/h (2 Bft) O 0,00 h 0,000 mm 0 W/m 7,0 C 6,3 C 24,4 km/h (4 Bft) 100,00 %
22.12.2015 00:00 7,7 C 7,7 C 7,7 C 96 % 0 cb 1029,0 hPa 0,6 l/m 5,9 km/h (2 Bft) O-NO 0,00 h 0,000 mm 0 W/m 7,1 C 6,9 C 19,8 km/h (4 Bft) 100,00 %
22.12.2015 01:00 7,7 C 7,6 C 7,7 C 97 % 0 cb 1029,2 hPa 0,4 l/m 5,6 km/h (1 Bft) O 0,00 h 0,000 mm 0 W/m 7,2 C 6,9 C 18,5 km/h (3 Bft) 100,00 %
22.12.2015 02:00 7,7 C 7,7 C 7,7 C 97 % 0 cb 1029,1 hPa 0,6 l/m 6,4 km/h (2 Bft) O-NO 0,00 h 0,000 mm 0 W/m 7,3 C 6,7 C 18,8 km/h (3 Bft) 100,00 %
22.12.2015 03:00 7,7 C 7,7 C 7,7 C 97 % 0 cb 1028,8 hPa 0,2 l/m 7,5 km/h (2 Bft) O 0,00 h 0,000 mm 0 W/m 7,3 C 6,5 C 22,5 km/h (4 Bft) 100,00 %
22.12.2015 04:00 7,8 C 7,8 C 7,8 C 97 % 0 cb 1028,8 hPa 0,6 l/m 7,0 km/h (2 Bft) O 0,00 h 0,000 mm 0 W/m 7,4 C 6,7 C 23,3 km/h (4 Bft) 100,00 %
22.12.2015 05:00 7,8 C 7,8 C 7,9 C 97 % 0 cb 1028,7 hPa 0,6 l/m 6,9 km/h (2 Bft) O 0,00 h 0,000 mm 0 W/m 7,4 C 6,7 C 22,8 km/h (4 Bft) 100,00 %
22.12.2015 06:00 7,9 C 7,9 C 7,9 C 98 % 0 cb 1028,7 hPa 0,6 l/m 6,9 km/h (2 Bft) O 0,00 h 0,000 mm 0 W/m 7,5 C 6,8 C 21,7 km/h (4 Bft) 100,00 %
22.12.2015 07:00 7,9 C 7,9 C 7,9 C 98 % 0 cb 1028,9 hPa 0,0 l/m 4,8 km/h (1 Bft) O 0,00 h 0,000 mm 0 W/m 7,6 C 7,4 C 15,3 km/h (3 Bft) 100,00 %
22.12.2015 08:00 7,9 C 7,9 C 8,0 C 97 % 0 cb 1029,0 hPa 0,0 l/m 3,5 km/h (1 Bft) O-NO 0,00 h 0,000 mm 6 W/m 7,4 C 7,7 C 9,6 km/h (2 Bft) 100,00 %
22.12.2015 09:00 8,1 C 8,1 C 8,1 C 95 % 0 cb 1029,1 hPa 0,0 l/m 4,3 km/h (1 Bft) O 0,00 h 0,000 mm 21 W/m 7,3 C 7,8 C 12,3 km/h (3 Bft) 99,93 %
22.12.2015 10:00 8,7 C 8,6 C 8,7 C 91 % 0 cb 1029,3 hPa 0,0 l/m 5,3 km/h (1 Bft) O-NO 0,17 h 0,025 mm 115 W/m 7,4 C 8,2 C 19,3 km/h (3 Bft) 100,00 %
22.12.2015 11:00 10,0 C 9,8 C 10,0 C 86 % 0 cb 1028,9 hPa 0,0 l/m 7,8 km/h (2 Bft) O 1,00 h 0,051 mm 228 W/m 7,7 C 9,7 C 24,1 km/h (4 Bft) 99,85 %
22.12.2015 12:00 10,4 C 10,3 C 10,5 C 84 % 0 cb 1028,5 hPa 0,0 l/m 7,5 km/h (2 Bft) O 1,00 h 0,102 mm 247 W/m 7,8 C 10,4 C 26,0 km/h (4 Bft) 100,00 %
22.12.2015 13:00 10,5 C 10,4 C 10,5 C 83 % 0 cb 1027,9 hPa 0,0 l/m 7,2 km/h (2 Bft) O 1,00 h 0,102 mm 174 W/m 7,6 C 10,5 C 24,1 km/h (4 Bft) 100,00 %
22.12.2015 14:00 10,3 C 10,3 C 10,4 C 82 % 0 cb 1027,4 hPa 0,0 l/m 6,7 km/h (2 Bft) O 0,00 h 0,076 mm 90 W/m 7,4 C 10,3 C 20,6 km/h (4 Bft) 99,85 %
22.12.2015 15:00 10,2 C 10,2 C 10,3 C 82 % 0 cb 1027,4 hPa 0,0 l/m 5,6 km/h (1 Bft) O-NO 0,00 h 0,051 mm 45 W/m 7,3 C 10,2 C 17,7 km/h (3 Bft) 99,93 %
22.12.2015 16:00 9,7 C 9,7 C 9,8 C 84 % 0 cb 1027,1 hPa 0,0 l/m 3,2 km/h (1 Bft) O 0,00 h 0,025 mm 11 W/m 7,1 C 9,6 C 12,6 km/h (3 Bft) 99,93 %
22.12.2015 17:00 9,3 C 9,3 C 9,4 C 84 % 0 cb 1027,0 hPa 0,0 l/m 4,0 km/h (1 Bft) O-NO 0,00 h 0,000 mm 0 W/m 6,8 C 9,2 C 11,0 km/h (2 Bft) 99,85 %
22.12.2015 18:00 9,1 C 9,1 C 9,2 C 84 % 0 cb 1026,7 hPa 0,0 l/m 5,1 km/h (1 Bft) O 0,00 h 0,025 mm 0 W/m 6,5 C 8,7 C 13,7 km/h (3 Bft) 100,00 %
22.12.2015 19:00 8,7 C 8,7 C 8,8 C 85 % 0 cb 1026,6 hPa 0,0 l/m 3,5 km/h (1 Bft) O 0,00 h 0,025 mm 0 W/m 6,3 C 8,6 C 12,9 km/h (3 Bft) 100,00 %
22.12.2015 20:00 8,1 C 8,1 C 8,2 C 86 % 0 cb 1026,6 hPa 0,0 l/m 2,1 km/h (1 Bft) O-NO 0,00 h 0,025 mm 0 W/m 5,9 C 8,1 C 8,9 km/h (2 Bft) 100,00 %
22.12.2015 21:00 7,4 C 7,4 C 7,5 C 88 % 0 cb 1026,5 hPa 0,0 l/m 1,9 km/h (1 Bft) O 0,00 h 0,000 mm 0 W/m 5,6 C 7,4 C 8,6 km/h (2 Bft) 99,93 %
22.12.2015 22:00 6,8 C 6,8 C 6,9 C 90 % 0 cb 1026,2 hPa 0,0 l/m 1,1 km/h (0 Bft) SO 0,00 h 0,000 mm 0 W/m 5,3 C 6,8 C 5,9 km/h (2 Bft) 100,00 %
22.12.2015 23:00 6,5 C 6,5 C 6,5 C 92 % 0 cb 1026,1 hPa 0,0 l/m 0,5 km/h (0 Bft) SO 0,00 h 0,000 mm 0 W/m 5,2 C 6,5 C 5,3 km/h (1 Bft) 99,63 %
23.12.2015 00:00 5,9 C 5,9 C 6,0 C 94 % 0 cb 1026,1 hPa 0,0 l/m 0,5 km/h (0 Bft) O 0,00 h 0,000 mm 0 W/m 5,1 C 5,9 C 3,5 km/h (1 Bft) 100,00 %
23.12.2015 01:00 5,4 C 5,4 C 5,5 C 95 % 0 cb 1025,9 hPa 0,0 l/m 0,5 km/h (0 Bft) O-SO 0,00 h 0,000 mm 0 W/m 4,8 C 5,4 C 3,2 km/h (1 Bft) 99,71 %
23.12.2015 02:00 5,3 C 5,2 C 5,3 C 97 % 0 cb 1025,9 hPa 0,0 l/m 1,1 km/h (0 Bft) O-SO 0,00 h 0,000 mm 0 W/m 4,8 C 5,3 C 5,1 km/h (1 Bft) 100,00 %
23.12.2015 03:00 5,7 C 5,6 C 5,7 C 97 % 0 cb 1025,7 hPa 0,0 l/m 2,7 km/h (1 Bft) O 0,00 h 0,000 mm 0 W/m 5,2 C 5,7 C 9,9 km/h (2 Bft) 99,78 %
23.12.2015 04:00 6,2 C 6,1 C 6,2 C 96 % 0 cb 1025,8 hPa 0,0 l/m 2,4 km/h (1 Bft) O 0,00 h 0,000 mm 0 W/m 5,6 C 6,2 C 9,1 km/h (2 Bft) 99,93 %
23.12.2015 05:00 7,0 C 6,9 C 7,0 C 94 % 0 cb 1025,7 hPa 0,0 l/m 3,5 km/h (1 Bft) O-NO 0,00 h 0,000 mm 0 W/m 6,1 C 6,9 C 11,8 km/h (2 Bft) 100,00 %
23.12.2015 06:00 7,6 C 7,5 C 7,7 C 92 % 0 cb 1025,9 hPa 1,0 l/m 4,0 km/h (1 Bft) O 0,00 h 0,000 mm 0 W/m 6,4 C 7,4 C 14,5 km/h (3 Bft) 100,00 %
23.12.2015 07:00 7,2 C 7,2 C 7,3 C 96 % 0 cb 1026,5 hPa 1,0 l/m 4,5 km/h (1 Bft) O 0,00 h 0,000 mm 0 W/m 6,6 C 6,8 C 15,6 km/h (3 Bft) 99,93 %
23.12.2015 08:00 7,3 C 7,3 C 7,3 C 97 % 0 cb 1027,1 hPa 0,2 l/m 6,1 km/h (2 Bft) O 0,00 h 0,000 mm 0 W/m 6,8 C 6,4 C 19,8 km/h (4 Bft) 100,00 %
23.12.2015 09:00 7,4 C 7,4 C 7,4 C 97 % 0 cb 1027,8 hPa 0,2 l/m 4,8 km/h (1 Bft) O-SO 0,00 h 0,000 mm 7 W/m 7,0 C 6,9 C 16,6 km/h (3 Bft) 99,93 %
23.12.2015 10:00 7,7 C 7,7 C 7,7 C 97 % 0 cb 1028,6 hPa 0,4 l/m 5,3 km/h (1 Bft) O-SO 0,00 h 0,000 mm 11 W/m 7,3 C 7,1 C 16,1 km/h (3 Bft) 100,00 %
23.12.2015 11:00 7,9 C 7,9 C 7,9 C 98 % 0 cb 1029,1 hPa 0,4 l/m 5,6 km/h (1 Bft) SO 0,00 h 0,000 mm 25 W/m 7,6 C 7,2 C 17,2 km/h (3 Bft) 99,85 %
23.12.2015 12:00 8,4 C 8,3 C 8,4 C 97 % 0 cb 1029,1 hPa 0,0 l/m 4,5 km/h (1 Bft) SO 0,00 h 0,000 mm 58 W/m 8,0 C 8,0 C 15,8 km/h (3 Bft) 100,00 %
23.12.2015 13:00 8,9 C 8,8 C 8,9 C 96 % 0 cb 1029,1 hPa 0,0 l/m 4,3 km/h (1 Bft) O 0,17 h 0,025 mm 110 W/m 8,3 C 8,7 C 13,2 km/h (3 Bft) 99,85 %
23.12.2015 14:00 9,0 C 8,9 C 9,1 C 95 % 0 cb 1029,4 hPa 0,0 l/m 3,5 km/h (1 Bft) O 0,17 h 0,025 mm 82 W/m 8,2 C 8,9 C 12,3 km/h (3 Bft) 99,93 %
23.12.2015 15:00 9,1 C 9,1 C 9,2 C 93 % 0 cb 1029,6 hPa 0,0 l/m 2,1 km/h (1 Bft) O 0,00 h 0,025 mm 64 W/m 8,1 C 9,1 C 9,1 km/h (2 Bft) 100,00 %
23.12.2015 16:00 8,5 C 8,5 C 8,7 C 92 % 0 cb 1030,2 hPa 0,0 l/m 0,8 km/h (0 Bft) SO 0,00 h 0,025 mm 15 W/m 7,2 C 8,5 C 4,5 km/h (1 Bft) 100,00 %
23.12.2015 17:00 6,8 C 6,8 C 7,1 C 94 % 0 cb 1030,4 hPa 0,0 l/m 0,5 km/h (0 Bft) N 0,00 h 0,000 mm 0 W/m 6,0 C 6,8 C 1,3 km/h (1 Bft) 99,78 %
23.12.2015 18:00 6,3 C 6,3 C 6,4 C 97 % 0 cb 1030,7 hPa 0,0 l/m 0,0 km/h (0 Bft) N 0,00 h 0,000 mm 0 W/m 5,9 C 6,3 C 0,8 km/h (0 Bft) 100,00 %
23.12.2015 19:00 6,5 C 6,4 C 6,6 C 97 % 0 cb 1030,6 hPa 0,0 l/m 0,0 km/h (0 Bft) N 0,00 h 0,000 mm 0 W/m 6,1 C 6,5 C 1,9 km/h (1 Bft) 100,00 %
23.12.2015 20:00 6,3 C 6,3 C 6,4 C 98 % 0 cb 1030,7 hPa 0,0 l/m 0,5 km/h (0 Bft) NO 0,00 h 0,000 mm 0 W/m 6,0 C 6,3 C 3,7 km/h (1 Bft) 100,00 %
23.12.2015 21:00 6,3 C 6,2 C 6,3 C 98 % 0 cb 1030,4 hPa 0,0 l/m 0,5 km/h (0 Bft) NO 0,00 h 0,000 mm 0 W/m 6,0 C 6,3 C 4,0 km/h (1 Bft) 99,85 %
23.12.2015 22:00 6,3 C 6,2 C 6,3 C 98 % 0 cb 1030,1 hPa 0,0 l/m 0,3 km/h (0 Bft) NO 0,00 h 0,000 mm 0 W/m 6,0 C 6,3 C 2,1 km/h (1 Bft) 99,93 %
23.12.2015 23:00 6,4 C 6,4 C 6,4 C 98 % 0 cb 1029,6 hPa 0,0 l/m 0,0 km/h (0 Bft) N 0,00 h 0,000 mm 0 W/m 6,2 C 6,4 C 0,0 km/h (0 Bft) 100,00 %
24.12.2015 00:00 6,7 C 6,7 C 6,7 C 98 % 0 cb 1029,0 hPa 0,0 l/m 0,0 km/h (0 Bft) N 0,00 h 0,000 mm 0 W/m 6,4 C 6,7 C 0,0 km/h (0 Bft) 100,00 %
24.12.2015 01:00 6,9 C 6,9 C 6,9 C 98 % 0 cb 1028,3 hPa 0,0 l/m 0,0 km/h (0 Bft) N 0,00 h 0,000 mm 0 W/m 6,6 C 6,9 C 0,5 km/h (0 Bft) 100,00 %
24.12.2015 02:00 7,3 C 7,2 C 7,3 C 99 % 0 cb 1027,8 hPa 0,0 l/m 0,0 km/h (0 Bft) NO 0,00 h 0,000 mm 0 W/m 7,1 C 7,3 C 1,3 km/h (1 Bft) 100,00 %
24.12.2015 03:00 7,6 C 7,6 C 7,6 C 99 % 0 cb 1027,5 hPa 0,0 l/m 0,5 km/h (0 Bft) NO 0,00 h 0,000 mm 0 W/m 7,5 C 7,6 C 3,2 km/h (1 Bft) 99,93 %
24.12.2015 04:00 7,7 C 7,7 C 7,7 C 98 % 0 cb 1027,2 hPa 0,0 l/m 0,3 km/h (0 Bft) NO 0,00 h 0,000 mm 0 W/m 7,4 C 7,7 C 3,2 km/h (1 Bft) 100,00 %
24.12.2015 05:00 7,7 C 7,7 C 7,7 C 98 % 0 cb 1026,9 hPa 0,0 l/m 0,0 km/h (0 Bft) N 0,00 h 0,000 mm 0 W/m 7,4 C 7,7 C 0,0 km/h (0 Bft) 99,93 %
24.12.2015 06:00 7,6 C 7,6 C 7,6 C 99 % 0 cb 1026,3 hPa 0,0 l/m 0,0 km/h (0 Bft) N 0,00 h 0,000 mm 0 W/m 7,4 C 7,6 C 0,0 km/h (0 Bft) 100,00 %
24.12.2015 07:00 7,6 C 7,6 C 7,6 C 99 % 0 cb 1026,1 hPa 0,0 l/m 0,0 km/h (0 Bft) N 0,00 h 0,000 mm 0 W/m 7,5 C 7,6 C 0,0 km/h (0 Bft) 100,00 %
24.12.2015 08:00 7,7 C 7,7 C 7,7 C 99 % 0 cb 1025,9 hPa 0,0 l/m 0,0 km/h (0 Bft) N 0,00 h 0,000 mm 5 W/m 7,5 C 7,7 C 0,0 km/h (0 Bft) 100,00 %
24.12.2015 09:00 7,8 C 7,8 C 7,8 C 99 % 0 cb 1025,6 hPa 0,0 l/m 0,0 km/h (0 Bft) N 0,00 h 0,000 mm 18 W/m 7,7 C 7,8 C 0,0 km/h (0 Bft) 100,00 %
24.12.2015 10:00 8,4 C 8,3 C 8,4 C 99 % 0 cb 1025,4 hPa 0,0 l/m 0,0 km/h (0 Bft) N-NO 0,00 h 0,000 mm 48 W/m 8,2 C 8,4 C 1,1 km/h (0 Bft) 98,98 %
24.12.2015 11:00 9,2 C 9,0 C 9,2 C 99 % 0 cb 1025,0 hPa 0,2 l/m 5,4 km/h (1 Bft) NO 0,00 h 0,025 mm 93 W/m 9,0 C 8,7 C 14,5 km/h (3 Bft) 99,78 %
24.12.2015 12:00 10,3 C 10,1 C 10,3 C 93 % 0 cb 1024,3 hPa 0,0 l/m 7,5 km/h (2 Bft) O-NO 0,50 h 0,025 mm 159 W/m 9,2 C 9,9 C 18,0 km/h (3 Bft) 99,93 %
24.12.2015 13:00 11,4 C 11,2 C 11,4 C 88 % 0 cb 1023,7 hPa 0,0 l/m 7,5 km/h (2 Bft) O-NO 0,83 h 0,076 mm 250 W/m 9,5 C 11,4 C 18,2 km/h (3 Bft) 100,00 %
24.12.2015 14:00 11,9 C 11,8 C 12,0 C 83 % 0 cb 1023,4 hPa 0,0 l/m 9,1 km/h (2 Bft) O-NO 0,33 h 0,102 mm 130 W/m 9,1 C 11,9 C 23,1 km/h (4 Bft) 100,00 %
24.12.2015 15:00 11,3 C 11,3 C 11,4 C 84 % 0 cb 1023,7 hPa 0,0 l/m 7,2 km/h (2 Bft) O 0,00 h 0,076 mm 37 W/m 8,7 C 11,3 C 18,2 km/h (3 Bft) 100,00 %
24.12.2015 16:00 10,4 C 10,4 C 10,6 C 88 % 0 cb 1023,6 hPa 0,0 l/m 5,3 km/h (1 Bft) O 0,00 h 0,025 mm 13 W/m 8,4 C 10,4 C 14,8 km/h (3 Bft) 100,00 %
24.12.2015 17:00 9,7 C 9,7 C 9,7 C 90 % 0 cb 1024,2 hPa 0,0 l/m 3,2 km/h (1 Bft) O 0,00 h 0,000 mm 0 W/m 8,0 C 9,7 C 10,7 km/h (2 Bft) 99,93 %
24.12.2015 18:00 10,0 C 9,9 C 10,0 C 89 % 0 cb 1024,7 hPa 0,0 l/m 4,5 km/h (1 Bft) O 0,00 h 0,000 mm 0 W/m 8,2 C 10,0 C 12,9 km/h (3 Bft) 99,78 %
24.12.2015 19:00 10,1 C 10,1 C 10,2 C 89 % 0 cb 1025,0 hPa 0,2 l/m 6,1 km/h (2 Bft) O-NO 0,00 h 0,000 mm 0 W/m 8,3 C 10,0 C 16,4 km/h (3 Bft) 99,71 %
24.12.2015 20:00 9,8 C 9,8 C 9,9 C 88 % 0 cb 1025,2 hPa 0,2 l/m 6,7 km/h (2 Bft) O 0,00 h 0,025 mm 0 W/m 7,9 C 9,1 C 20,4 km/h (4 Bft) 99,93 %
24.12.2015 21:00 9,7 C 9,6 C 9,7 C 88 % 0 cb 1025,5 hPa 0,0 l/m 4,5 km/h (1 Bft) O 0,00 h 0,025 mm 0 W/m 7,8 C 9,4 C 15,0 km/h (3 Bft) 99,93 %
24.12.2015 22:00 9,8 C 9,8 C 9,9 C 86 % 0 cb 1025,7 hPa 0,0 l/m 6,4 km/h (2 Bft) O-NO 0,00 h 0,000 mm 0 W/m 7,6 C 9,2 C 19,3 km/h (3 Bft) 100,00 %
24.12.2015 23:00 10,2 C 10,1 C 10,2 C 85 % 0 cb 1026,0 hPa 0,0 l/m 7,8 km/h (2 Bft) O 0,00 h 0,025 mm 0 W/m 7,7 C 10,0 C 22,5 km/h (4 Bft) 100,00 %
25.12.2015 00:00 10,4 C 10,4 C 10,4 C 83 % 0 cb 1026,5 hPa 0,0 l/m 8,6 km/h (2 Bft) O 0,00 h 0,025 mm 0 W/m 7,7 C 10,4 C 24,7 km/h (4 Bft) 99,64 %
25.12.2015 01:00 10,4 C 10,4 C 10,4 C 84 % 0 cb 1027,0 hPa 0,0 l/m 7,5 km/h (2 Bft) SO 0,00 h 0,025 mm 0 W/m 7,7 C 10,4 C 23,3 km/h (4 Bft) 100,00 %
25.12.2015 02:00 9,8 C 9,8 C 9,9 C 89 % 0 cb 1027,5 hPa 0,0 l/m 6,7 km/h (2 Bft) O 0,00 h 0,025 mm 0 W/m 8,1 C 9,3 C 21,7 km/h (4 Bft) 100,00 %
25.12.2015 03:00 9,4 C 9,4 C 9,5 C 92 % 0 cb 1028,1 hPa 0,0 l/m 5,6 km/h (1 Bft) SO 0,00 h 0,000 mm 0 W/m 8,1 C 8,9 C 18,5 km/h (3 Bft) 100,00 %
25.12.2015 04:00 9,1 C 9,1 C 9,1 C 93 % 0 cb 1028,5 hPa 0,0 l/m 4,5 km/h (1 Bft) SO 0,00 h 0,000 mm 0 W/m 8,1 C 8,8 C 15,6 km/h (3 Bft) 100,00 %
25.12.2015 05:00 8,6 C 8,6 C 8,7 C 95 % 0 cb 1028,7 hPa 0,4 l/m 4,8 km/h (1 Bft) SO 0,00 h 0,000 mm 0 W/m 7,9 C 8,2 C 15,3 km/h (3 Bft) 100,00 %
25.12.2015 06:00 8,5 C 8,4 C 8,5 C 97 % 0 cb 1029,1 hPa 0,4 l/m 1,1 km/h (0 Bft) O 0,00 h 0,000 mm 0 W/m 8,0 C 8,5 C 4,3 km/h (1 Bft) 100,00 %
25.12.2015 07:00 8,5 C 8,5 C 8,6 C 97 % 0 cb 1029,5 hPa 1,0 l/m 2,1 km/h (1 Bft) O 0,00 h 0,000 mm 0 W/m 8,1 C 8,5 C 7,2 km/h (2 Bft) 99,78 %
25.12.2015 08:00 8,5 C 8,5 C 8,5 C 98 % 0 cb 1029,9 hPa 0,0 l/m 3,5 km/h (1 Bft) O-NO 0,00 h 0,000 mm 0 W/m 8,1 C 8,4 C 10,5 km/h (2 Bft) 100,00 %
25.12.2015 09:00 8,6 C 8,6 C 8,6 C 98 % 0 cb 1030,2 hPa 0,0 l/m 2,9 km/h (1 Bft) O-NO 0,00 h 0,000 mm 9 W/m 8,2 C 8,6 C 6,9 km/h (2 Bft) 98,47 %
25.12.2015 10:00 8,6 C 8,5 C 8,6 C 97 % 0 cb 1030,6 hPa 0,0 l/m 2,7 km/h (1 Bft) O-NO 0,00 h 0,000 mm 57 W/m 8,1 C 8,6 C 7,8 km/h (2 Bft) 100,00 %
25.12.2015 11:00 9,0 C 8,9 C 9,0 C 96 % 0 cb 1030,7 hPa 0,0 l/m 2,4 km/h (1 Bft) O 0,00 h 0,025 mm 73 W/m 8,4 C 9,0 C 6,9 km/h (2 Bft) 100,00 %
25.12.2015 12:00 9,6 C 9,5 C 9,6 C 94 % 0 cb 1030,3 hPa 0,0 l/m 3,2 km/h (1 Bft) O-NO 0,00 h 0,025 mm 112 W/m 8,8 C 9,6 C 11,8 km/h (2 Bft) 100,00 %
25.12.2015 13:00 10,0 C 10,0 C 10,0 C 93 % 0 cb 1030,0 hPa 0,0 l/m 2,9 km/h (1 Bft) O 0,00 h 0,051 mm 81 W/m 9,0 C 10,0 C 9,9 km/h (2 Bft) 100,00 %
25.12.2015 14:00 10,5 C 10,4 C 10,5 C 91 % 0 cb 1029,9 hPa 0,0 l/m 2,7 km/h (1 Bft) O 0,00 h 0,025 mm 86 W/m 9,1 C 10,5 C 7,8 km/h (2 Bft) 99,93 %
25.12.2015 15:00 10,6 C 10,6 C 10,7 C 90 % 0 cb 1029,9 hPa 0,0 l/m 1,9 km/h (1 Bft) O 0,00 h 0,025 mm 53 W/m 9,1 C 10,6 C 6,4 km/h (2 Bft) 99,85 %
25.12.2015 16:00 10,3 C 10,3 C 10,4 C 91 % 0 cb 1030,1 hPa 0,0 l/m 2,1 km/h (1 Bft) O-NO 0,00 h 0,025 mm 15 W/m 8,8 C 10,3 C 6,4 km/h (2 Bft) 100,00 %
25.12.2015 17:00 10,1 C 10,1 C 10,2 C 90 % 0 cb 1030,3 hPa 0,0 l/m 3,2 km/h (1 Bft) O-NO 0,00 h 0,000 mm 0 W/m 8,6 C 10,1 C 8,6 km/h (2 Bft) 100,00 %
25.12.2015 18:00 10,1 C 10,0 C 10,1 C 91 % 0 cb 1030,5 hPa 0,0 l/m 1,3 km/h (1 Bft) O 0,00 h 0,000 mm 0 W/m 8,6 C 10,1 C 6,9 km/h (2 Bft) 100,00 %
25.12.2015 19:00 10,5 C 10,4 C 10,5 C 88 % 0 cb 1030,8 hPa 0,2 l/m 3,5 km/h (1 Bft) O 0,00 h 0,000 mm 0 W/m 8,6 C 10,5 C 12,1 km/h (2 Bft) 99,93 %
25.12.2015 20:00 10,1 C 10,1 C 10,2 C 89 % 0 cb 1031,1 hPa 0,0 l/m 3,2 km/h (1 Bft) SO 0,00 h 0,000 mm 0 W/m 8,3 C 10,1 C 10,2 km/h (2 Bft) 100,00 %
25.12.2015 21:00 9,7 C 9,7 C 9,8 C 90 % 0 cb 1031,3 hPa 0,0 l/m 2,1 km/h (1 Bft) O-SO 0,00 h 0,000 mm 0 W/m 8,1 C 9,7 C 6,7 km/h (2 Bft) 100,00 %
25.12.2015 22:00 9,3 C 9,3 C 9,3 C 90 % 0 cb 1031,4 hPa 0,0 l/m 3,2 km/h (1 Bft) O 0,00 h 0,000 mm 0 W/m 7,7 C 9,3 C 11,6 km/h (2 Bft) 100,00 %
25.12.2015 23:00 8,8 C 8,8 C 8,9 C 90 % 0 cb 1031,5 hPa 0,0 l/m 3,2 km/h (1 Bft) O 0,00 h 0,000 mm 0 W/m 7,3 C 8,7 C 11,8 km/h (2 Bft) 99,93 %
26.12.2015 00:00 8,7 C 8,7 C 8,8 C 90 % 0 cb 1031,5 hPa 0,0 l/m 2,9 km/h (1 Bft) O-SO 0,00 h 0,000 mm 0 W/m 7,1 C 8,6 C 12,1 km/h (2 Bft) 100,00 %
26.12.2015 01:00 8,2 C 8,2 C 8,2 C 91 % 0 cb 1031,4 hPa 0,0 l/m 2,9 km/h (1 Bft) SO 0,00 h 0,000 mm 0 W/m 6,8 C 8,2 C 7,5 km/h (2 Bft) 99,85 %
26.12.2015 02:00 8,0 C 7,9 C 8,1 C 92 % 0 cb 1031,3 hPa 0,0 l/m 2,9 km/h (1 Bft) SO 0,00 h 0,000 mm 0 W/m 6,8 C 7,9 C 8,8 km/h (2 Bft) 100,00 %
26.12.2015 03:00 7,7 C 7,7 C 7,8 C 93 % 0 cb 1031,4 hPa 0,0 l/m 1,3 km/h (1 Bft) O 0,00 h 0,000 mm 0 W/m 6,6 C 7,7 C 5,1 km/h (1 Bft) 99,93 %
26.12.2015 04:00 7,3 C 7,3 C 7,4 C 94 % 0 cb 1031,3 hPa 0,0 l/m 0,8 km/h (0 Bft) O 0,00 h 0,000 mm 0 W/m 6,4 C 7,3 C 4,8 km/h (1 Bft) 99,93 %
26.12.2015 05:00 7,0 C 7,0 C 7,0 C 95 % 0 cb 1031,0 hPa 0,0 l/m 0,0 km/h (0 Bft) O-NO 0,00 h 0,000 mm 0 W/m 6,2 C 7,0 C 2,4 km/h (1 Bft) 100,00 %
26.12.2015 06:00 6,8 C 6,8 C 6,9 C 96 % 0 cb 1031,0 hPa 0,0 l/m 1,1 km/h (0 Bft) O 0,00 h 0,000 mm 0 W/m 6,2 C 6,8 C 4,3 km/h (1 Bft) 99,93 %
26.12.2015 07:00 6,2 C 6,2 C 6,3 C 96 % 0 cb 1031,1 hPa 0,0 l/m 0,0 km/h (0 Bft) N 0,00 h 0,000 mm 0 W/m 5,6 C 6,2 C 1,6 km/h (1 Bft) 99,93 %
26.12.2015 08:00 5,8 C 5,8 C 5,9 C 97 % 0 cb 1031,0 hPa 0,0 l/m 0,0 km/h (0 Bft) N 0,00 h 0,000 mm 14 W/m 5,4 C 5,8 C 0,5 km/h (0 Bft) 99,85 %
26.12.2015 09:00 6,2 C 6,0 C 6,2 C 98 % 0 cb 1031,1 hPa 0,0 l/m 0,5 km/h (0 Bft) O 0,00 h 0,000 mm 48 W/m 5,9 C 6,2 C 2,1 km/h (1 Bft) 100,00 %
26.12.2015 10:00 7,0 C 6,9 C 7,0 C 97 % 0 cb 1031,1 hPa 0,0 l/m 2,1 km/h (1 Bft) O-NO 0,00 h 0,025 mm 101 W/m 6,6 C 7,0 C 5,9 km/h (2 Bft) 99,71 %
26.12.2015 11:00 8,6 C 8,4 C 8,7 C 94 % 0 cb 1031,1 hPa 0,0 l/m 3,5 km/h (1 Bft) O 1,00 h 0,051 mm 204 W/m 7,7 C 8,5 C 10,4 km/h (2 Bft) 100,00 %
26.12.2015 12:00 9,2 C 9,1 C 9,2 C 92 % 0 cb 1030,7 hPa 0,0 l/m 4,3 km/h (1 Bft) O-NO 1,00 h 0,076 mm 179 W/m 8,0 C 9,0 C 14,5 km/h (3 Bft) 99,93 %
26.12.2015 13:00 9,6 C 9,6 C 9,6 C 91 % 0 cb 1030,0 hPa 0,0 l/m 4,0 km/h (1 Bft) O-NO 0,00 h 0,051 mm 78 W/m 8,3 C 9,4 C 12,6 km/h (3 Bft) 100,00 %
26.12.2015 14:00 9,7 C 9,7 C 9,7 C 91 % 0 cb 1029,5 hPa 0,0 l/m 5,1 km/h (1 Bft) O 0,00 h 0,025 mm 89 W/m 8,3 C 9,4 C 15,0 km/h (3 Bft) 100,00 %
26.12.2015 15:00 9,7 C 9,7 C 9,7 C 91 % 0 cb 1029,6 hPa 0,0 l/m 3,7 km/h (1 Bft) O 0,00 h 0,025 mm 33 W/m 8,3 C 9,6 C 13,4 km/h (3 Bft) 100,00 %
26.12.2015 16:00 9,5 C 9,5 C 9,6 C 91 % 0 cb 1029,9 hPa 0,0 l/m 3,2 km/h (1 Bft) O 0,00 h 0,025 mm 12 W/m 8,2 C 9,5 C 9,9 km/h (2 Bft) 100,00 %
26.12.2015 17:00 9,2 C 9,2 C 9,3 C 93 % 0 cb 1029,9 hPa 0,0 l/m 3,5 km/h (1 Bft) O 0,00 h 0,000 mm 0 W/m 8,1 C 9,1 C 13,2 km/h (3 Bft) 99,93 %
26.12.2015 18:00 8,8 C 8,8 C 8,9 C 93 % 0 cb 1029,8 hPa 0,0 l/m 4,5 km/h (1 Bft) O 0,00 h 0,000 mm 0 W/m 7,7 C 8,5 C 15,3 km/h (3 Bft) 99,85 %
26.12.2015 19:00 8,3 C 8,3 C 8,4 C 95 % 0 cb 1029,8 hPa 0,0 l/m 5,1 km/h (1 Bft) O 0,00 h 0,000 mm 0 W/m 7,5 C 7,8 C 14,2 km/h (3 Bft) 99,56 %
26.12.2015 20:00 8,0 C 8,0 C 8,0 C 95 % 0 cb 1029,9 hPa 0,0 l/m 3,2 km/h (1 Bft) O 0,00 h 0,000 mm 0 W/m 7,2 C 7,9 C 8,9 km/h (2 Bft) 99,71 %
26.12.2015 21:00 7,6 C 7,6 C 7,7 C 95 % 0 cb 1029,8 hPa 0,0 l/m 3,7 km/h (1 Bft) O-NO 0,00 h 0,000 mm 0 W/m 6,9 C 7,4 C 7,8 km/h (2 Bft) 100,00 %
26.12.2015 22:00 7,3 C 7,3 C 7,4 C 95 % 0 cb 1029,7 hPa 0,0 l/m 3,2 km/h (1 Bft) O-NO 0,00 h 0,000 mm 0 W/m 6,6 C 7,3 C 8,6 km/h (2 Bft) 99,93 %
26.12.2015 23:00 7,3 C 7,2 C 7,3 C 96 % 0 cb 1029,7 hPa 0,0 l/m 2,7 km/h (1 Bft) O 0,00 h 0,000 mm 0 W/m 6,6 C 7,3 C 9,1 km/h (2 Bft) 99,85 %
27.12.2015 00:00 7,2 C 7,1 C 7,2 C 96 % 0 cb 1029,5 hPa 0,0 l/m 2,9 km/h (1 Bft) O 0,00 h 0,000 mm 0 W/m 6,6 C 7,1 C 10,5 km/h (2 Bft) 97,81 %
27.12.2015 01:00 7,3 C 7,2 C 7,3 C 96 % 0 cb 1029,4 hPa 0,0 l/m 2,1 km/h (1 Bft) O 0,00 h 0,000 mm 0 W/m 6,7 C 7,3 C 8,8 km/h (2 Bft) 100,00 %
27.12.2015 02:00 7,4 C 7,4 C 7,4 C 97 % 0 cb 1029,1 hPa 0,0 l/m 2,9 km/h (1 Bft) O 0,00 h 0,000 mm 0 W/m 6,9 C 7,4 C 10,7 km/h (2 Bft) 99,85 %
27.12.2015 03:00 7,3 C 7,3 C 7,4 C 97 % 0 cb 1029,1 hPa 0,0 l/m 2,7 km/h (1 Bft) O 0,00 h 0,000 mm 0 W/m 6,8 C 7,3 C 9,7 km/h (2 Bft) 99,93 %
27.12.2015 04:00 7,0 C 7,0 C 7,1 C 96 % 0 cb 1029,1 hPa 0,0 l/m 2,7 km/h (1 Bft) O 0,00 h 0,000 mm 0 W/m 6,5 C 7,0 C 10,4 km/h (2 Bft) 99,56 %
27.12.2015 05:00 6,5 C 6,5 C 6,5 C 96 % 0 cb 1029,2 hPa 0,0 l/m 1,6 km/h (1 Bft) O-SO 0,00 h 0,000 mm 0 W/m 5,9 C 6,5 C 6,7 km/h (2 Bft) 100,00 %
27.12.2015 06:00 6,0 C 6,0 C 6,1 C 97 % 0 cb 1029,4 hPa 0,0 l/m 1,9 km/h (1 Bft) O 0,00 h 0,000 mm 0 W/m 5,6 C 6,0 C 6,4 km/h (2 Bft) 99,85 %
27.12.2015 07:00 5,6 C 5,6 C 5,7 C 97 % 0 cb 1029,7 hPa 0,0 l/m 1,1 km/h (0 Bft) O 0,00 h 0,000 mm 0 W/m 5,1 C 5,6 C 6,4 km/h (2 Bft) 100,00 %
27.12.2015 08:00 5,4 C 5,3 C 5,4 C 97 % 0 cb 1030,1 hPa 0,0 l/m 1,3 km/h (1 Bft) O 0,00 h 0,000 mm 14 W/m 5,0 C 5,4 C 5,9 km/h (2 Bft) 99,85 %
27.12.2015 09:00 5,7 C 5,7 C 5,7 C 98 % 0 cb 1030,6 hPa 0,0 l/m 1,1 km/h (0 Bft) O-NO 0,00 h 0,000 mm 54 W/m 5,4 C 5,7 C 4,8 km/h (1 Bft) 100,00 %
27.12.2015 10:00 6,5 C 6,3 C 6,5 C 98 % 0 cb 1031,3 hPa 0,0 l/m 1,3 km/h (1 Bft) O-NO 0,17 h 0,025 mm 119 W/m 6,1 C 6,5 C 5,3 km/h (1 Bft) 99,93 %
27.12.2015 11:00 7,9 C 7,6 C 7,9 C 94 % 0 cb 1031,6 hPa 0,0 l/m 2,4 km/h (1 Bft) O 0,83 h 0,051 mm 190 W/m 7,0 C 7,9 C 8,0 km/h (2 Bft) 100,00 %
27.12.2015 12:00 9,8 C 9,6 C 9,8 C 87 % 0 cb 1031,5 hPa 0,0 l/m 4,0 km/h (1 Bft) O-NO 1,00 h 0,076 mm 282 W/m 7,7 C 9,8 C 13,2 km/h (3 Bft) 99,71 %
27.12.2015 13:00 10,3 C 10,3 C 10,3 C 84 % 0 cb 1031,2 hPa 0,0 l/m 4,5 km/h (1 Bft) O 1,00 h 0,127 mm 236 W/m 7,7 C 10,3 C 15,0 km/h (3 Bft) 100,00 %
27.12.2015 14:00 10,1 C 10,1 C 10,2 C 85 % 0 cb 1031,1 hPa 0,0 l/m 4,0 km/h (1 Bft) O 0,50 h 0,102 mm 153 W/m 7,7 C 10,1 C 12,6 km/h (3 Bft) 100,00 %
27.12.2015 15:00 10,1 C 10,0 C 10,1 C 85 % 0 cb 1031,2 hPa 0,0 l/m 2,4 km/h (1 Bft) O 0,00 h 0,051 mm 71 W/m 7,7 C 10,1 C 8,8 km/h (2 Bft) 100,00 %
27.12.2015 16:00 9,4 C 9,4 C 9,6 C 86 % 0 cb 1031,6 hPa 0,0 l/m 2,6 km/h (1 Bft) O-NO 0,00 h 0,025 mm 17 W/m 7,2 C 9,4 C 6,1 km/h (2 Bft) 100,00 %
Min-Datum _ 23.12.15 23.12.15 23.12.15 22.12.15 21.12.15 21.12.15 - 21.12.15 - - - - 23.12.15 23.12.15 21.12.15 27.12.15
_ Min-Zeit 02:30 02:30 02:10 13:40 00:00 02:10 - 00:00 - - - - 01:30 02:00 00:00 00:40
Minimum _ 5,1 C 5,1 C 5,2 C 81 % 0 cb 1023,1 hPa - 0,0 km/h (0 Bft) - - - - 4,6 C 5,2 C 0,0 km/h (0 Bft) 86,84 %
Max-Datum _ 24.12.15 24.12.15 24.12.15 24.12.15 21.12.15 27.12.15 21.12.15 21.12.15 - 22.12.15 27.12.15 24.12.15 24.12.15 24.12.15 21.12.15 21.12.15
_ Max-Zeit 14:00 14:00 14:00 02:20 00:00 11:00 05:10 19:50 - 10:40 13:00 13:40 13:50 14:00 13:00 00:00
Maximum _ 12,2 C 12,1 C 12,2 C 99 % 0 cb 1031,7 hPa 1,4 l/m 12,9 km/h
O (3 Bft)
- 0,17 h 0,127 mm 327 W/m 9,7 C 12,2 C 37,0 km/h
O-NO (5 Bft)
100,00 %
Durchschnitt _ 8,3 C 8,3 C 8,3 C 93 % 0 cb 1028,2 hPa #15,8 l/m 3,8 km/h (1 Bft) O #10:40 h #2,297 mm 80 W/m 7,2 C 8,0 C 12,1 km/h (2 Bft) 99,91 %
Wetterstation Gdesweiler